Time;durP1;ratioP1;P1;durP2;ratioP2;P2;SDS_P1;SDS_P2;PMS_P1;PMS_P2;Temp;Humidity;BMP_temperature;BMP_pressure;BME280_temperature;BME280_humidity;BME280_pressure;Samples;Min_cycle;Max_cycle;Signal;HPM_P1;HPM_P2
2021/03/23 00:02:10;;;;;;;7.67;5.70;;;10.20;99.90;;;;;;5072205;28;20199;-81
2021/03/23 00:04:36;;;;;;;7.20;6.50;;;10.20;99.90;;;;;;5071904;28;20168;-82
2021/03/23 00:07:02;;;;;;;5.93;5.43;;;10.20;99.90;;;;;;5070286;28;20172;-82
2021/03/23 00:09:27;;;;;;;6.50;5.90;;;10.20;99.90;;;;;;5070827;28;20236;-82
2021/03/23 00:11:53;;;;;;;7.10;6.40;;;10.20;99.90;;;;;;5077161;28;20544;-82
2021/03/23 00:14:19;;;;;;;6.47;5.87;;;10.20;99.90;;;;;;5071004;28;20164;-82
2021/03/23 00:16:46;;;;;;;8.18;7.30;;;10.20;99.90;;;;;;5071740;28;20932;-83
2021/03/23 00:19:13;;;;;;;10.63;6.63;;;10.20;99.90;;;;;;5053902;28;20188;-83
2021/03/23 00:21:39;;;;;;;11.55;6.65;;;10.20;99.90;;;;;;5071910;28;21151;-82
2021/03/23 00:24:06;;;;;;;6.87;6.17;;;10.20;99.90;;;;;;5070723;28;20168;-83
2021/03/23 00:26:32;;;;;;;7.65;6.30;;;10.20;99.90;;;;;;5071501;28;20645;-83
2021/03/23 00:28:58;;;;;;;8.05;7.22;;;10.20;99.90;;;;;;5070523;28;20259;-84
2021/03/23 00:31:27;;;;;;;10.80;7.22;;;10.20;99.90;;;;;;5071819;28;20203;-84
2021/03/23 00:33:53;;;;;;;8.10;7.30;;;10.20;99.90;;;;;;5072134;28;20275;-83
2021/03/23 00:36:23;;;;;;;8.17;7.37;;;10.20;99.90;;;;;;5070935;28;20269;-84
2021/03/23 00:38:51;;;;;;;9.55;6.15;;;10.20;99.90;;;;;;5071563;28;20252;-84
2021/03/23 00:41:16;;;;;;;8.80;7.15;;;10.20;99.90;;;;;;5074448;28;20186;-84
2021/03/23 00:43:42;;;;;;;7.63;6.83;;;10.20;99.90;;;;;;5072769;28;20259;-84
2021/03/23 00:46:08;;;;;;;8.27;7.10;;;10.20;99.90;;;;;;5072407;28;20574;-84
2021/03/23 00:48:34;;;;;;;11.32;7.55;;;10.20;99.90;;;;;;5073659;28;20171;-84
2021/03/23 00:51:00;;;;;;;8.90;7.37;;;10.20;99.90;;;;;;5072877;28;20196;-84
2021/03/23 00:53:27;;;;;;;8.35;7.55;;;10.20;99.90;;;;;;5070485;28;20173;-83
2021/03/23 00:55:52;;;;;;;11.45;8.35;;;10.20;99.90;;;;;;5071195;28;20164;-84
2021/03/23 00:58:18;;;;;;;7.93;6.93;;;10.20;99.90;;;;;;5071047;28;20243;-84
2021/03/23 01:00:44;;;;;;;9.07;7.60;;;10.10;99.90;;;;;;5071180;28;20192;-84
2021/03/23 01:03:10;;;;;;;9.50;8.07;;;10.10;99.90;;;;;;5070193;28;20259;-83
2021/03/23 01:05:37;;;;;;;8.67;7.87;;;10.10;99.90;;;;;;5071313;28;20247;-83
2021/03/23 01:08:05;;;;;;;9.65;8.70;;;10.10;99.90;;;;;;5070634;28;20554;-83
2021/03/23 01:10:32;;;;;;;9.45;8.43;;;10.10;99.90;;;;;;5072959;28;20208;-83
2021/03/23 01:12:58;;;;;;;9.10;8.20;;;10.10;99.90;;;;;;5073712;28;20222;-83
2021/03/23 01:15:28;;;;;;;11.57;9.15;;;10.10;99.90;;;;;;5073574;28;20165;-83
2021/03/23 01:17:54;;;;;;;10.60;9.23;;;10.10;99.90;;;;;;5073377;28;20634;-83
2021/03/23 01:20:22;;;;;;;12.20;8.50;;;10.10;99.90;;;;;;5073408;28;20211;-83
2021/03/23 01:22:48;;;;;;;10.13;8.40;;;10.10;99.90;;;;;;5073460;28;20650;-83
2021/03/23 01:25:14;;;;;;;9.87;8.23;;;10.20;99.90;;;;;;5074872;28;20302;-83
2021/03/23 01:27:40;;;;;;;9.20;8.27;;;10.10;99.90;;;;;;5078158;28;21362;-83
2021/03/23 01:30:08;;;;;;;9.57;8.57;;;10.10;99.90;;;;;;5073280;28;20188;-83
2021/03/23 01:32:34;;;;;;;12.20;10.13;;;10.10;99.90;;;;;;5074428;28;20200;-83
2021/03/23 01:34:59;;;;;;;13.27;9.30;;;10.20;99.90;;;;;;5074632;28;20256;-82
2021/03/23 01:37:25;;;;;;;11.47;9.10;;;10.10;99.90;;;;;;5074240;28;20251;-82
2021/03/23 01:39:51;;;;;;;11.33;9.90;;;10.10;99.90;;;;;;5072982;28;20184;-82
2021/03/23 01:42:19;;;;;;;11.60;10.40;;;10.10;99.90;;;;;;5056571;28;20222;-82
2021/03/23 01:44:46;;;;;;;12.07;10.80;;;10.10;99.90;;;;;;5072981;28;20619;-82
2021/03/23 01:47:13;;;;;;;13.63;10.95;;;10.10;99.90;;;;;;5073835;28;20593;-82
2021/03/23 01:49:44;;;;;;;13.20;10.50;;;10.10;99.90;;;;;;5074261;28;20172;-82
2021/03/23 01:52:19;;;;;;;12.18;10.90;;;10.10;99.90;;;;;;5074410;28;20588;-82
2021/03/23 01:54:54;;;;;;;14.30;11.02;;;10.00;99.90;;;;;;5072971;28;20515;-82
2021/03/23 01:57:20;;;;;;;13.80;12.38;;;10.10;99.90;;;;;;5073864;28;20225;-82
2021/03/23 01:59:51;;;;;;;13.23;11.15;;;10.00;99.90;;;;;;5072798;28;20660;-82
2021/03/23 02:02:21;;;;;;;12.63;11.32;;;10.00;99.90;;;;;;5073992;28;20175;-82
2021/03/23 02:04:47;;;;;;;12.95;11.20;;;10.00;99.90;;;;;;5082065;28;20241;-82
2021/03/23 02:07:12;;;;;;;13.57;11.30;;;10.00;99.90;;;;;;5073731;28;20161;-82
2021/03/23 02:09:38;;;;;;;15.10;13.27;;;10.00;99.90;;;;;;5073986;28;20219;-82
2021/03/23 02:12:09;;;;;;;17.57;11.20;;;10.00;99.90;;;;;;5073936;28;20546;-82
2021/03/23 02:14:40;;;;;;;14.30;12.60;;;10.00;99.90;;;;;;5072889;28;20562;-82
2021/03/23 02:17:21;;;;;;;14.75;13.13;;;10.00;99.90;;;;;;5073606;28;20169;-82
2021/03/23 02:19:47;;;;;;;16.80;12.20;;;10.00;99.90;;;;;;5073893;28;20577;-82
2021/03/23 02:22:20;;;;;;;14.80;13.20;;;9.90;99.90;;;;;;5073296;28;20530;-82
2021/03/23 02:24:47;;;;;;;15.57;12.35;;;9.90;99.90;;;;;;5073845;28;20531;-82
2021/03/23 02:27:12;;;;;;;13.95;12.45;;;9.90;99.90;;;;;;5073448;28;20188;-82
2021/03/23 02:29:38;;;;;;;15.93;12.73;;;9.90;99.90;;;;;;5073913;28;20169;-82
2021/03/23 02:32:04;;;;;;;16.00;11.80;;;9.90;99.90;;;;;;5073538;28;20294;-82
2021/03/23 02:34:30;;;;;;;13.32;11.93;;;9.90;99.90;;;;;;5073676;28;20192;-82
2021/03/23 02:36:56;;;;;;;13.97;12.03;;;9.90;99.90;;;;;;5073366;28;20184;-82
2021/03/23 02:39:26;;;;;;;17.60;13.37;;;9.90;99.90;;;;;;5055513;28;20306;-82
2021/03/23 02:41:54;;;;;;;15.10;13.50;;;9.90;99.90;;;;;;5078816;28;20164;-82
2021/03/23 02:44:20;;;;;;;15.25;13.45;;;9.90;99.90;;;;;;5073438;28;20286;-82
2021/03/23 02:46:45;;;;;;;14.57;13.17;;;9.90;99.90;;;;;;5073068;28;20188;-83
2021/03/23 02:49:12;;;;;;;15.67;12.80;;;9.90;99.90;;;;;;5073408;28;20636;-82
2021/03/23 02:51:38;;;;;;;16.08;14.38;;;9.90;99.90;;;;;;5073109;28;20200;-83
2021/03/23 02:54:04;;;;;;;17.30;14.95;;;9.90;99.90;;;;;;5073240;28;20156;-83
2021/03/23 02:56:30;;;;;;;15.63;13.65;;;9.90;99.90;;;;;;5072976;28;20189;-83
2021/03/23 02:58:56;;;;;;;22.87;14.40;;;9.90;99.90;;;;;;5073413;28;20208;-82
2021/03/23 03:01:22;;;;;;;18.83;13.90;;;9.90;99.90;;;;;;5071955;28;20227;-82
2021/03/23 03:03:48;;;;;;;16.07;14.33;;;9.80;99.90;;;;;;5074187;28;20305;-79
2021/03/23 03:06:14;;;;;;;16.13;12.80;;;9.80;99.90;;;;;;5073495;28;20574;-82
2021/03/23 03:08:40;;;;;;;18.00;14.70;;;9.80;99.90;;;;;;5071484;28;20575;-81
2021/03/23 03:11:06;;;;;;;18.13;16.20;;;9.80;99.90;;;;;;5072997;28;20215;-81
2021/03/23 03:13:33;;;;;;;19.83;16.58;;;9.80;99.90;;;;;;5072045;28;20570;-81
2021/03/23 03:16:00;;;;;;;19.48;14.50;;;9.80;99.90;;;;;;5072980;28;20161;-81
2021/03/23 03:18:27;;;;;;;18.25;15.10;;;9.80;99.90;;;;;;5077005;28;20169;-82
2021/03/23 03:20:55;;;;;;;20.95;14.77;;;9.80;99.90;;;;;;5072873;28;20188;-82
2021/03/23 03:23:21;;;;;;;25.58;15.98;;;9.80;99.90;;;;;;5072727;28;20172;-81
2021/03/23 03:25:48;;;;;;;18.27;15.60;;;9.80;99.90;;;;;;5071358;28;20664;-81
2021/03/23 03:28:13;;;;;;;21.83;15.77;;;9.80;99.90;;;;;;5072532;28;20551;-82
2021/03/23 03:30:40;;;;;;;18.03;15.00;;;9.80;99.90;;;;;;5072888;28;20534;-82
2021/03/23 03:33:08;;;;;;;19.00;14.90;;;9.80;99.90;;;;;;5071952;28;20756;-83
2021/03/23 03:35:37;;;;;;;18.23;15.80;;;9.80;99.90;;;;;;5073280;28;20188;-83
2021/03/23 03:38:04;;;;;;;19.35;14.82;;;9.80;99.90;;;;;;5071000;28;20183;-83
2021/03/23 03:40:34;;;;;;;19.98;16.85;;;9.70;99.90;;;;;;5072264;28;20226;-84
2021/03/23 03:43:00;;;;;;;18.60;16.33;;;9.70;99.90;;;;;;5072316;28;20172;-84
2021/03/23 03:45:27;;;;;;;17.50;15.32;;;9.70;99.90;;;;;;5072260;28;20251;-84
2021/03/23 03:47:55;;;;;;;19.63;15.88;;;9.70;99.90;;;;;;5070954;28;20168;-83
2021/03/23 03:50:23;;;;;;;20.83;16.70;;;9.80;99.90;;;;;;5071080;28;20794;-83
2021/03/23 03:52:49;;;;;;;18.95;16.00;;;9.70;99.90;;;;;;5072323;28;20249;-83
2021/03/23 03:55:19;;;;;;;17.00;14.48;;;9.70;99.90;;;;;;5078166;28;20164;-82
2021/03/23 03:57:50;;;;;;;20.17;16.95;;;9.70;99.90;;;;;;5054832;28;20191;-83
2021/03/23 04:00:19;;;;;;;20.70;17.63;;;9.70;99.90;;;;;;5070505;28;20635;-83
2021/03/23 04:02:45;;;;;;;20.20;16.45;;;9.70;99.90;;;;;;5072209;28;20251;-83
2021/03/23 04:05:28;;;;;;;22.35;17.13;;;9.70;99.90;;;;;;5071975;28;20176;-83
2021/03/23 04:07:53;;;;;;;20.23;17.70;;;9.70;99.90;;;;;;5053685;28;20199;-83
2021/03/23 04:10:20;;;;;;;26.53;17.03;;;9.70;99.90;;;;;;5070632;28;20254;-83
2021/03/23 04:12:52;;;;;;;19.67;17.42;;;9.70;99.90;;;;;;5070495;28;20202;-82
2021/03/23 04:15:32;;;;;;;22.33;18.48;;;9.70;99.90;;;;;;5070616;28;20165;-82
2021/03/23 04:17:58;;;;;;;27.65;18.90;;;9.70;99.90;;;;;;5071472;28;20173;-83
2021/03/23 04:20:24;;;;;;;19.60;17.52;;;9.70;99.90;;;;;;5071656;28;20194;-82
2021/03/23 04:22:51;;;;;;;21.25;17.23;;;9.70;99.90;;;;;;5070749;28;20164;-82
2021/03/23 04:25:20;;;;;;;19.65;16.70;;;9.70;99.90;;;;;;5053974;28;20188;-83
2021/03/23 04:27:46;;;;;;;17.80;15.27;;;9.70;99.90;;;;;;5071419;28;20168;-82
2021/03/23 04:30:13;;;;;;;19.45;16.50;;;9.70;99.90;;;;;;5072142;28;20261;-82
2021/03/23 04:32:39;;;;;;;21.20;16.40;;;9.70;99.90;;;;;;5079385;28;20196;-82
2021/03/23 04:35:09;;;;;;;20.88;17.20;;;9.70;99.90;;;;;;5071805;28;20169;-82
2021/03/23 04:37:34;;;;;;;19.73;17.23;;;9.70;99.90;;;;;;5071184;28;20251;-82
2021/03/23 04:40:01;;;;;;;19.33;15.70;;;9.70;99.90;;;;;;5071717;28;20662;-82
2021/03/23 04:42:27;;;;;;;20.83;16.25;;;9.70;99.90;;;;;;5071495;28;20168;-82
2021/03/23 04:44:53;;;;;;;20.70;16.67;;;9.70;99.90;;;;;;5072552;28;20175;-83
2021/03/23 04:47:18;;;;;;;18.77;14.63;;;9.70;99.90;;;;;;5074089;28;20688;-83
2021/03/23 04:49:44;;;;;;;18.10;14.13;;;9.70;99.90;;;;;;5075420;28;20190;-83
2021/03/23 04:55:53;;;;;;;21.95;17.60;;;9.70;99.90;;;;;;5476940;22;20672;-83
2021/03/23 05:20:14;;;;;;;19.17;15.00;;;9.70;99.90;;;;;;4822914;29;20272;-83
2021/03/23 05:23:40;;;;;;;19.48;15.10;;;9.70;99.90;;;;;;4879295;29;20258;-81
2021/03/23 05:26:15;;;;;;;20.33;15.85;;;9.70;99.90;;;;;;4910220;29;20175;-82
2021/03/23 05:28:59;;;;;;;19.58;15.95;;;9.70;99.90;;;;;;4889398;29;20218;-83
2021/03/23 05:31:55;;;;;;;21.05;14.98;;;9.70;99.90;;;;;;4885260;29;20245;-83
2021/03/23 05:34:34;;;;;;;24.65;18.00;;;9.70;99.90;;;;;;4996062;28;20638;-83
2021/03/23 05:37:20;;;;;;;22.00;17.55;;;9.70;99.90;;;;;;5019521;28;20159;-82
2021/03/23 05:39:56;;;;;;;21.50;15.70;;;9.70;99.90;;;;;;5004174;28;20171;-83
2021/03/23 05:42:40;;;;;;;19.70;15.82;;;9.70;99.90;;;;;;5020027;28;20187;-82
2021/03/23 05:45:34;;;;;;;22.10;16.90;;;9.70;99.90;;;;;;5004144;28;20155;-83
2021/03/23 05:48:55;;;;;;;23.90;18.13;;;9.70;99.90;;;;;;5015292;28;20679;-84
2021/03/23 05:51:26;;;;;;;20.25;15.55;;;9.70;99.90;;;;;;4953665;28;20195;-83
2021/03/23 05:54:34;;;;;;;20.70;17.05;;;9.70;99.90;;;;;;4983785;28;20164;-82
2021/03/23 05:57:06;;;;;;;21.77;15.52;;;9.70;99.90;;;;;;4983191;28;20159;-84
2021/03/23 05:59:58;;;;;;;19.77;16.40;;;9.70;99.90;;;;;;4986544;28;20168;-83
2021/03/23 06:02:41;;;;;;;19.65;17.05;;;9.70;99.90;;;;;;4990320;28;20198;-82
2021/03/23 06:05:33;;;;;;;24.98;18.20;;;9.80;99.90;;;;;;4983898;28;20207;-84
2021/03/23 06:08:06;;;;;;;22.77;17.38;;;9.80;99.90;;;;;;4965604;28;20192;-84
2021/03/23 06:10:42;;;;;;;23.70;18.27;;;9.80;99.90;;;;;;4999445;28;20175;-83
2021/03/23 06:13:31;;;;;;;22.15;17.52;;;9.80;99.90;;;;;;4998441;28;20210;-82
2021/03/23 06:16:14;;;;;;;22.95;18.52;;;9.80;99.90;;;;;;4999845;28;20163;-83
2021/03/23 06:18:52;;;;;;;21.85;16.80;;;9.80;99.90;;;;;;4998291;28;20187;-84
2021/03/23 06:21:29;;;;;;;21.92;17.63;;;9.80;99.90;;;;;;4986348;28;20176;-83
2021/03/23 06:24:10;;;;;;;27.88;18.15;;;9.90;99.90;;;;;;4985067;28;20170;-83
2021/03/23 06:26:53;;;;;;;22.98;17.77;;;9.90;99.90;;;;;;4982025;28;20183;-82
2021/03/23 06:29:46;;;;;;;24.35;18.67;;;9.90;99.90;;;;;;4994634;28;20259;-82
2021/03/23 06:32:44;;;;;;;26.30;20.10;;;9.90;99.90;;;;;;4967691;28;20211;-82
2021/03/23 06:35:44;;;;;;;26.38;23.05;;;10.00;99.90;;;;;;4974279;28;20175;-83
2021/03/23 06:38:30;;;;;;;27.15;20.88;;;10.00;99.90;;;;;;4999291;28;20234;-83
2021/03/23 06:42:09;;;;;;;23.23;19.55;;;10.10;99.90;;;;;;4965373;28;20184;-82
2021/03/23 06:44:44;;;;;;;20.02;17.58;;;10.10;99.90;;;;;;4979846;28;20200;-82
2021/03/23 06:47:37;;;;;;;19.00;16.15;;;10.20;99.90;;;;;;4978928;28;20171;-80
2021/03/23 06:50:23;;;;;;;22.08;16.92;;;10.20;99.90;;;;;;4965783;28;20194;-79
2021/03/23 06:53:10;;;;;;;19.35;15.60;;;10.30;99.90;;;;;;4978792;28;20207;-79
2021/03/23 06:55:50;;;;;;;20.20;16.92;;;10.30;99.90;;;;;;4995584;28;20164;-79
2021/03/23 06:58:30;;;;;;;20.23;17.05;;;10.40;99.90;;;;;;4960537;28;20187;-79
2021/03/23 07:01:19;;;;;;;17.85;15.75;;;10.40;99.90;;;;;;4994489;28;20198;-79
2021/03/23 07:04:35;;;;;;;25.42;17.40;;;10.40;99.90;;;;;;4997749;28;20200;-79
2021/03/23 07:07:24;;;;;;;19.40;15.88;;;10.50;99.90;;;;;;4983041;28;20183;-79
2021/03/23 07:09:56;;;;;;;19.17;16.20;;;10.50;99.90;;;;;;4980391;28;20223;-80
2021/03/23 07:12:36;;;;;;;19.05;16.27;;;10.60;99.90;;;;;;4975571;28;20203;-79
2021/03/23 07:15:22;;;;;;;20.17;17.73;;;10.60;99.90;;;;;;4992736;28;20183;-79
2021/03/23 07:18:13;;;;;;;19.85;17.85;;;10.60;99.90;;;;;;4994792;28;20168;-79
2021/03/23 07:20:44;;;;;;;20.83;17.10;;;10.70;99.90;;;;;;4961562;28;20164;-78
2021/03/23 07:23:28;;;;;;;20.75;18.20;;;10.70;99.90;;;;;;4981884;28;20199;-78
2021/03/23 07:26:33;;;;;;;23.77;18.60;;;10.80;99.90;;;;;;4996041;28;20203;-79
2021/03/23 07:29:26;;;;;;;23.58;18.15;;;10.80;99.90;;;;;;4997061;28;20252;-80
2021/03/23 07:32:47;;;;;;;23.65;19.27;;;10.80;99.90;;;;;;4984801;28;20226;-78
2021/03/23 07:35:35;;;;;;;22.45;17.35;;;10.90;99.90;;;;;;4953175;29;20422;-80
2021/03/23 07:38:22;;;;;;;29.85;19.70;;;10.90;99.90;;;;;;4971821;28;20277;-79
2021/03/23 07:40:51;;;;;;;20.88;17.45;;;11.00;99.90;;;;;;4954072;28;20553;-79
2021/03/23 07:43:49;;;;;;;21.63;16.92;;;11.00;99.90;;;;;;4953287;28;20597;-79
2021/03/23 07:46:42;;;;;;;19.73;15.75;;;11.00;99.90;;;;;;4972018;28;20206;-80
2021/03/23 07:49:39;;;;;;;21.67;19.38;;;11.10;99.90;;;;;;4983362;28;20742;-78
2021/03/23 07:52:43;;;;;;;19.88;17.73;;;11.10;99.90;;;;;;4990954;28;20250;-78
2021/03/23 07:55:22;;;;;;;18.10;15.90;;;11.10;99.90;;;;;;4990271;28;20175;-79
2021/03/23 07:58:13;;;;;;;19.00;14.55;;;11.20;99.90;;;;;;4999637;28;20159;-79
2021/03/23 08:00:44;;;;;;;16.83;13.88;;;11.30;99.90;;;;;;4982384;28;20187;-80
2021/03/23 08:03:37;;;;;;;23.48;16.98;;;11.30;99.90;;;;;;4994989;28;20213;-80
2021/03/23 08:06:32;;;;;;;18.30;16.20;;;11.40;99.90;;;;;;4995607;28;20175;-79
2021/03/23 08:09:17;;;;;;;19.73;16.02;;;11.50;99.90;;;;;;4997007;28;20168;-80
2021/03/23 08:15:24;;;;;;;17.20;14.35;;;11.50;99.90;;;;;;4998961;28;20180;-80
2021/03/23 08:18:17;;;;;;;15.30;13.45;;;11.50;99.90;;;;;;5134837;23;20226;-80
2021/03/23 08:24:00;;;;;;;15.82;13.88;;;11.50;99.90;;;;;;5411618;22;21065;-78
2021/03/23 08:26:45;;;;;;;15.88;14.15;;;11.50;99.90;;;;;;5200399;23;20225;-79
2021/03/23 08:29:55;;;;;;;18.70;13.60;;;11.50;99.90;;;;;;5038191;28;20188;-79
2021/03/23 08:38:08;;;;;;;15.60;13.95;;;11.50;99.90;;;;;;5792519;23;20221;-79
2021/03/23 08:40:52;;;;;;;20.42;18.23;;;11.50;99.90;;;;;;5016392;28;20811;-80
2021/03/23 08:43:37;;;;;;;18.85;15.98;;;11.40;99.90;;;;;;5030753;28;20182;-80
2021/03/23 08:46:23;;;;;;;16.02;14.30;;;11.50;99.90;;;;;;5019090;28;20170;-78
2021/03/23 08:48:56;;;;;;;19.85;13.00;;;11.60;99.90;;;;;;5033026;28;20218;-80
2021/03/23 08:51:27;;;;;;;15.40;13.80;;;11.80;99.90;;;;;;5031313;28;20150;-80
2021/03/23 08:54:00;;;;;;;19.23;15.15;;;11.90;99.90;;;;;;5029758;28;20276;-79
2021/03/23 08:56:51;;;;;;;14.35;12.95;;;12.00;99.90;;;;;;5035538;28;20163;-79
2021/03/23 08:59:33;;;;;;;16.23;13.80;;;12.10;99.90;;;;;;5029698;28;20217;-79
2021/03/23 09:02:01;;;;;;;14.98;12.65;;;12.30;99.90;;;;;;5031405;28;20201;-79
2021/03/23 09:04:36;;;;;;;16.77;13.93;;;12.40;99.90;;;;;;5032849;28;20181;-78
2021/03/23 09:07:07;;;;;;;14.93;12.70;;;12.50;99.90;;;;;;5030971;28;20173;-79
2021/03/23 09:09:53;;;;;;;16.85;13.35;;;12.50;99.90;;;;;;5017484;28;20758;-79
2021/03/23 09:12:40;;;;;;;17.45;13.20;;;12.60;99.90;;;;;;5033322;28;20632;-79
2021/03/23 09:18:02;;;;;;;16.05;14.40;;;12.80;99.90;;;;;;5226563;23;20218;-79
2021/03/23 09:20:31;;;;;;;15.93;11.25;;;12.90;99.90;;;;;;5035561;28;20182;-78
2021/03/23 09:23:18;;;;;;;17.05;12.70;;;12.90;99.90;;;;;;5033578;28;20224;-79
2021/03/23 09:25:52;;;;;;;17.15;12.73;;;13.00;99.90;;;;;;5018660;28;20219;-79
2021/03/23 09:28:31;;;;;;;14.55;12.52;;;13.10;99.90;;;;;;5009738;28;20179;-79
2021/03/23 09:31:07;;;;;;;16.30;14.48;;;13.20;99.90;;;;;;5012097;28;20241;-78
2021/03/23 09:33:38;;;;;;;15.77;13.00;;;13.40;99.90;;;;;;5036206;28;20217;-80
2021/03/23 09:36:15;;;;;;;15.20;12.05;;;13.50;99.90;;;;;;5195507;23;20209;-80
2021/03/23 09:38:49;;;;;;;15.70;12.43;;;13.60;99.90;;;;;;5037425;28;20158;-80
2021/03/23 09:41:25;;;;;;;14.27;11.90;;;13.90;99.90;;;;;;5038090;28;20166;-80
2021/03/23 09:44:05;;;;;;;13.25;11.80;;;14.00;99.90;;;;;;5018417;28;20167;-80
2021/03/23 09:47:00;;;;;;;17.20;12.00;;;14.30;99.90;;;;;;5022843;28;20247;-80
2021/03/23 09:49:50;;;;;;;13.05;11.10;;;14.50;99.90;;;;;;4990945;28;20191;-81
2021/03/23 09:52:24;;;;;;;12.97;10.33;;;14.70;99.90;;;;;;5004631;28;20206;-80
2021/03/23 09:54:55;;;;;;;13.27;11.90;;;14.90;99.90;;;;;;5006993;28;20652;-81
2021/03/23 09:57:23;;;;;;;14.50;10.90;;;15.20;99.90;;;;;;4995876;28;20582;-81
2021/03/23 09:59:52;;;;;;;14.87;10.97;;;15.40;99.90;;;;;;4971210;28;20590;-81
2021/03/23 10:02:26;;;;;;;16.73;14.90;;;15.50;99.90;;;;;;5010291;28;20821;-82
2021/03/23 10:04:52;;;;;;;14.07;11.87;;;15.60;97.50;;;;;;5011693;28;20166;-81
2021/03/23 10:07:40;;;;;;;15.60;13.90;;;15.80;99.10;;;;;;5012528;28;20721;-80
2021/03/23 10:10:30;;;;;;;12.97;10.70;;;16.10;96.40;;;;;;5006695;28;20589;-79
2021/03/23 10:12:58;;;;;;;11.60;10.20;;;16.50;97.60;;;;;;5000389;28;20641;-79
2021/03/23 10:15:50;;;;;;;10.30;9.27;;;17.00;98.70;;;;;;5013753;28;20562;-80
2021/03/23 10:18:26;;;;;;;12.53;10.53;;;17.30;98.40;;;;;;5012947;28;20598;-80
2021/03/23 10:21:00;;;;;;;12.97;10.57;;;17.60;98.30;;;;;;5016518;28;20642;-81
2021/03/23 10:23:31;;;;;;;11.00;9.27;;;17.90;97.50;;;;;;5012779;28;20610;-80
2021/03/23 10:26:06;;;;;;;11.20;9.17;;;18.10;97.80;;;;;;5011244;28;20592;-80
2021/03/23 10:28:46;;;;;;;11.20;10.10;;;18.30;97.00;;;;;;5008625;28;20597;-79
2021/03/23 10:31:12;;;;;;;11.13;10.13;;;18.70;97.50;;;;;;5008778;28;20562;-80
2021/03/23 10:33:41;;;;;;;11.10;10.00;;;19.10;98.10;;;;;;5003297;28;20997;-80
2021/03/23 10:36:10;;;;;;;12.83;11.57;;;19.50;97.40;;;;;;4997984;28;20674;-79
2021/03/23 10:38:40;;;;;;;13.17;11.93;;;19.70;96.50;;;;;;5009434;28;20597;-80
2021/03/23 10:41:21;;;;;;;14.20;10.77;;;19.80;95.70;;;;;;5010267;28;20574;-80
2021/03/23 10:43:49;;;;;;;13.43;11.53;;;19.90;94.30;;;;;;5013271;28;20577;-79
2021/03/23 10:46:31;;;;;;;12.67;10.70;;;19.90;94.20;;;;;;5012069;28;20574;-79
2021/03/23 10:49:24;;;;;;;13.80;10.70;;;19.80;93.20;;;;;;4984897;28;20566;-80
2021/03/23 10:52:14;;;;;;;11.23;10.03;;;19.70;92.70;;;;;;5012530;28;20666;-81
2021/03/23 10:54:42;;;;;;;11.30;9.23;;;19.60;92.80;;;;;;5002327;28;20620;-79
2021/03/23 10:57:27;;;;;;;11.77;10.60;;;19.40;92.50;;;;;;5012264;28;20597;-80
2021/03/23 10:59:53;;;;;;;12.77;10.40;;;19.40;92.20;;;;;;5010206;28;20571;-81
2021/03/23 11:02:31;;;;;;;12.80;9.93;;;19.50;92.70;;;;;;5008230;28;20621;-80
2021/03/23 11:05:15;;;;;;;11.97;9.33;;;19.70;92.50;;;;;;5007713;28;20578;-79
2021/03/23 11:07:59;;;;;;;14.77;10.27;;;19.90;92.60;;;;;;5011128;28;20609;-80
2021/03/23 11:10:38;;;;;;;10.30;9.30;;;20.20;92.90;;;;;;5012571;28;20609;-80
2021/03/23 11:13:04;;;;;;;10.90;9.57;;;20.60;93.10;;;;;;5009090;28;20625;-78
2021/03/23 11:15:41;;;;;;;10.10;9.07;;;20.90;92.70;;;;;;5015229;28;21425;-80
2021/03/23 11:18:27;;;;;;;13.30;9.87;;;21.10;91.60;;;;;;5014265;28;20577;-79
2021/03/23 11:20:53;;;;;;;12.23;8.73;;;21.20;89.90;;;;;;5008321;28;20997;-80
2021/03/23 11:23:46;;;;;;;14.33;10.10;;;21.20;90.10;;;;;;5010150;28;20610;-80
2021/03/23 11:26:25;;;;;;;10.30;9.13;;;21.20;87.20;;;;;;5006601;28;20578;-78
2021/03/23 11:29:01;;;;;;;15.20;13.47;;;21.10;85.40;;;;;;5008789;28;20616;-79
2021/03/23 11:31:32;;;;;;;11.13;9.90;;;20.90;83.40;;;;;;5016661;28;20801;-79
2021/03/23 11:34:02;;;;;;;14.60;11.53;;;20.60;82.30;;;;;;5015969;28;20589;-79
2021/03/23 11:36:33;;;;;;;16.88;12.30;;;20.40;81.40;;;;;;4997579;28;20721;-79
2021/03/23 11:39:00;;;;;;;12.80;10.93;;;19.90;76.50;;;;;;5017906;28;20162;-78
2021/03/23 11:41:48;;;;;;;10.83;9.70;;;19.70;79.20;;;;;;5017729;28;20609;-79
2021/03/23 11:44:21;;;;;;;10.50;8.50;;;19.60;79.80;;;;;;5017768;28;20649;-81
2021/03/23 11:47:10;;;;;;;10.57;9.47;;;19.40;80.20;;;;;;5019073;28;20558;-80
2021/03/23 11:49:46;;;;;;;12.00;10.80;;;19.30;80.10;;;;;;5017559;28;20653;-80
2021/03/23 11:52:12;;;;;;;11.37;9.47;;;19.10;78.90;;;;;;5000394;28;20597;-80
2021/03/23 11:54:38;;;;;;;11.97;10.03;;;18.90;79.80;;;;;;5016567;28;20574;-79
2021/03/23 11:57:05;;;;;;;12.73;11.47;;;18.80;79.50;;;;;;5017893;28;20605;-80
2021/03/23 11:59:33;;;;;;;14.10;9.90;;;18.70;79.40;;;;;;5014126;28;20928;-79
2021/03/23 12:01:59;;;;;;;12.00;10.83;;;18.50;79.50;;;;;;5004314;28;20642;-80
2021/03/23 12:04:25;;;;;;;10.93;9.87;;;18.40;79.00;;;;;;5009320;28;20594;-80
2021/03/23 12:07:04;;;;;;;10.73;9.63;;;18.30;79.20;;;;;;5017572;28;20563;-82
2021/03/23 12:09:40;;;;;;;10.57;9.30;;;18.10;79.00;;;;;;5010390;28;20590;-82
2021/03/23 12:12:18;;;;;;;12.00;10.70;;;18.00;79.40;;;;;;4993393;28;20606;-80
2021/03/23 12:15:05;;;;;;;18.07;13.00;;;18.00;79.30;;;;;;5086453;28;21346;-80
2021/03/23 12:17:36;;;;;;;16.37;13.40;;;17.90;78.90;;;;;;5083894;28;20569;-80
2021/03/23 12:20:12;;;;;;;14.73;13.20;;;17.80;78.80;;;;;;5089518;28;20594;-79
2021/03/23 12:22:38;;;;;;;12.97;11.57;;;17.80;78.80;;;;;;5088367;28;20592;-80
2021/03/23 12:25:08;;;;;;;14.60;11.20;;;17.70;79.20;;;;;;5082241;28;20605;-79
2021/03/23 12:27:34;;;;;;;15.90;11.07;;;17.70;79.60;;;;;;5084031;28;20555;-79
2021/03/23 12:30:01;;;;;;;15.23;11.40;;;17.70;80.20;;;;;;5083230;28;20579;-79
2021/03/23 12:32:28;;;;;;;13.07;11.60;;;17.80;80.70;;;;;;5091513;28;20587;-79
2021/03/23 12:35:21;;;;;;;12.07;10.73;;;18.00;81.10;;;;;;5093459;28;20583;-80
2021/03/23 12:38:01;;;;;;;11.20;9.83;;;18.10;80.80;;;;;;5094668;28;20606;-80
2021/03/23 12:40:51;;;;;;;12.27;11.00;;;18.20;80.60;;;;;;5093671;28;20617;-80
2021/03/23 12:43:27;;;;;;;12.53;11.33;;;18.20;80.20;;;;;;5072970;28;20598;-80
2021/03/23 12:45:58;;;;;;;12.60;11.30;;;18.10;79.60;;;;;;5074145;28;20593;-80
2021/03/23 12:48:33;;;;;;;13.07;11.67;;;18.20;79.80;;;;;;5092710;28;20613;-79
2021/03/23 12:50:59;;;;;;;12.43;11.13;;;18.20;79.40;;;;;;5088414;28;20555;-80
2021/03/23 12:53:36;;;;;;;12.33;10.43;;;18.10;79.60;;;;;;5075653;28;20633;-80
2021/03/23 12:56:23;;;;;;;11.17;9.27;;;18.10;79.40;;;;;;5090625;28;20558;-79
2021/03/23 12:59:21;;;;;;;14.87;12.17;;;18.10;79.80;;;;;;5130739;22;20690;-78
2021/03/23 13:02:17;;;;;;;;;;;;;;;;;;;;;
2021/03/23 13:05:07;;;;;;;14.03;11.00;;;18.20;80.40;;;;;;5098819;28;20614;-79
2021/03/23 13:08:02;;;;;;;10.80;9.17;;;18.40;80.30;;;;;;5114364;28;20554;-81
2021/03/23 13:10:41;;;;;;;13.47;10.97;;;18.40;79.50;;;;;;5091693;28;20604;-80
2021/03/23 13:13:26;;;;;;;11.47;9.87;;;18.40;78.80;;;;;;5111561;28;20718;-80
2021/03/23 13:15:57;;;;;;;13.13;10.73;;;18.40;78.70;;;;;;5196759;22;20648;-79
2021/03/23 13:18:25;;;;;;;11.07;10.07;;;18.40;79.20;;;;;;5150011;28;20778;-79
2021/03/23 13:20:57;;;;;;;12.27;10.50;;;18.40;79.10;;;;;;5131728;28;20544;-79
2021/03/23 13:23:56;;;;;;;12.57;10.90;;;18.40;78.80;;;;;;5132198;28;20612;-78
2021/03/23 13:26:31;;;;;;;15.53;12.23;;;18.40;77.90;;;;;;5112076;28;20654;-78
2021/03/23 13:29:02;;;;;;;13.27;11.03;;;18.30;77.10;;;;;;5107851;28;20598;-79
2021/03/23 13:31:35;;;;;;;12.20;9.97;;;18.20;77.10;;;;;;5112665;28;20592;-79
2021/03/23 13:34:02;;;;;;;13.30;10.47;;;18.10;77.30;;;;;;5109223;28;21123;-78
2021/03/23 13:36:28;;;;;;;17.10;11.97;;;18.10;77.30;;;;;;5133732;28;20659;-80
2021/03/23 13:38:55;;;;;;;12.23;10.03;;;18.10;77.50;;;;;;5116210;28;20572;-80
2021/03/23 13:41:21;;;;;;;12.17;10.60;;;18.10;77.90;;;;;;5137029;28;20174;-82
2021/03/23 13:43:54;;;;;;;14.67;10.73;;;18.10;77.80;;;;;;5122548;28;20698;-80
2021/03/23 13:46:38;;;;;;;11.03;9.93;;;18.00;77.30;;;;;;5116982;28;20544;-80
2021/03/23 13:49:06;;;;;;;13.03;11.33;;;18.00;77.50;;;;;;5086127;28;20589;-80
2021/03/23 13:51:32;;;;;;;15.50;12.17;;;18.00;77.70;;;;;;5133223;28;20583;-80
2021/03/23 13:53:59;;;;;;;12.90;11.60;;;17.90;77.10;;;;;;5136802;28;20624;-80
2021/03/23 13:56:26;;;;;;;13.10;11.50;;;17.90;77.20;;;;;;5111418;28;20564;-79